Time;durP1;ratioP1;P1;durP2;ratioP2;P2;SDS_P1;SDS_P2;PMS_P1;PMS_P2;Temp;Humidity;BMP_temperature;BMP_pressure;BME280_temperature;BME280_humidity;BME280_pressure;Samples;Min_cycle;Max_cycle;Signal;HPM_P1;HPM_P2
2023/10/24 00:00:12;;;;;;;;;;;;;;;;;;5096366;28;19927;-76
2023/10/24 00:02:38;;;;;;;;;;;;;;;;;;5096255;28;20049;-76
2023/10/24 00:05:04;;;;;;;;;;;;;;;;;;5095839;28;19957;-76
2023/10/24 00:07:30;;;;;;;;;;;;;;;;;;5078196;28;19904;-76
2023/10/24 00:09:56;;;;;;;;;;;;;;;;;;5096089;28;19907;-76
2023/10/24 00:12:22;;;;;;;;;;;;;;;;;;5095832;28;19910;-76
2023/10/24 00:14:48;;;;;;;;;;;;;;;;;;5096508;28;19904;-76
2023/10/24 00:17:14;;;;;;;;;;;;;;;;;;5095605;28;19951;-76
2023/10/24 00:19:40;;;;;;;;;;;;;;;;;;5096241;28;19904;-76
2023/10/24 00:22:06;;;;;;;;;;;;;;;;;;5096169;28;19911;-76
2023/10/24 00:24:32;;;;;;;;;;;;;;;;;;5095977;28;19965;-76
2023/10/24 00:26:58;;;;;;;;;;;;;;;;;;5095868;28;19911;-76
2023/10/24 00:29:24;;;;;;;;;;;;;;;;;;5095729;28;19904;-76
2023/10/24 00:31:50;;;;;;;;;;;;;;;;;;5095301;28;19911;-76
2023/10/24 00:34:17;;;;;;;;;;;;;;;;;;5095663;28;19904;-76
2023/10/24 00:36:43;;;;;;;;;;;;;;;;;;5096028;28;19919;-76
2023/10/24 00:39:09;;;;;;;;;;;;;;;;;;5094501;28;19908;-75
2023/10/24 00:41:35;;;;;;;;;;;;;;;;;;5095264;28;19911;-75
2023/10/24 00:44:01;;;;;;;;;;;;;;;;;;5095570;28;19904;-76
2023/10/24 00:46:27;;;;;;;;;;;;;;;;;;5095273;28;19904;-76
2023/10/24 00:48:53;;;;;;;;;;;;;;;;;;5095349;28;20268;-75
2023/10/24 00:51:19;;;;;;;;;;;;;;;;;;5095393;28;19904;-75
2023/10/24 00:53:45;;;;;;;;;;;;;;;;;;5094900;28;19903;-75
2023/10/24 00:56:11;;;;;;;;;;;;;;;;;;5095206;28;19999;-75
2023/10/24 00:58:37;;;;;;;;;;;;;;;;;;5095309;28;19904;-75
2023/10/24 01:01:03;;;;;;;;;;;;;;;;;;5094797;28;19911;-75
2023/10/24 01:03:29;;;;;;;;;;;;;;;;;;5095057;28;19904;-75
2023/10/24 01:05:55;;;;;;;;;;;;;;;;;;5094973;28;19911;-75
2023/10/24 01:08:21;;;;;;;;;;;;;;;;;;5094565;28;19904;-75
2023/10/24 01:10:47;;;;;;;;;;;;;;;;;;5076655;28;19908;-76
2023/10/24 01:13:13;;;;;;;;;;;;;;;;;;5094813;28;19965;-76
2023/10/24 01:15:39;;;;;;;;;;;;;;;;;;5094170;28;19995;-75
2023/10/24 01:18:04;;;;;;;;;;;;;;;;;;5076602;28;20401;-75
2023/10/24 01:20:30;;;;;;;;;;;;;;;;;;5094325;28;19904;-75
2023/10/24 01:22:56;;;;;;;;;;;;;;;;;;5094839;28;19915;-75
2023/10/24 01:25:22;;;;;;;;;;;;;;;;;;5076407;28;19999;-75
2023/10/24 01:27:53;;;;;;;;;;;;;;;;;;5094264;28;20003;-75
2023/10/24 01:30:19;;;;;;;;;;;;;;;;;;5094582;28;19904;-75
2023/10/24 01:32:45;;;;;;;;;;;;;;;;;;5094459;28;20238;-75
2023/10/24 01:35:11;;;;;;;;;;;;;;;;;;5094417;28;20322;-75
2023/10/24 01:37:37;;;;;;;;;;;;;;;;;;5076367;28;20394;-76
2023/10/24 01:40:03;;;;;;;;;;;;;;;;;;5094327;28;19911;-75
2023/10/24 01:42:29;;;;;;;;;;;;;;;;;;5094038;28;19997;-75
2023/10/24 01:44:55;;;;;;;;;;;;;;;;;;5094510;28;19965;-76
2023/10/24 01:47:21;;;;;;;;;;;;;;;;;;5094310;28;19911;-76
2023/10/24 01:49:47;;;;;;;;;;;;;;;;;;5094089;28;19904;-75
2023/10/24 01:52:13;;;;;;;;;;;;;;;;;;5094255;28;19904;-75
2023/10/24 01:54:39;;;;;;;;;;;;;;;;;;5076132;28;19904;-75
2023/10/24 01:57:05;;;;;;;;;;;;;;;;;;5093732;28;20014;-76
2023/10/24 01:59:31;;;;;;;;;;;;;;;;;;5076127;28;20348;-76
2023/10/24 02:01:57;;;;;;;;;;;;;;;;;;5094427;28;19904;-75
2023/10/24 02:04:23;;;;;;;;;;;;;;;;;;5093693;28;19957;-75
2023/10/24 02:06:49;;;;;;;;;;;;;;;;;;5094085;28;19904;-76
2023/10/24 02:09:15;;;;;;;;;;;;;;;;;;5094033;28;19904;-75
2023/10/24 02:11:41;;;;;;;;;;;;;;;;;;5093659;28;19943;-76
2023/10/24 02:14:07;;;;;;;;;;;;;;;;;;5093913;28;19908;-75
2023/10/24 02:16:32;;;;;;;;;;;;;;;;;;5093641;28;19942;-75
2023/10/24 02:18:58;;;;;;;;;;;;;;;;;;5093558;28;19904;-75
2023/10/24 02:21:24;;;;;;;;;;;;;;;;;;5093824;28;19950;-75
2023/10/24 02:23:51;;;;;;;;;;;;;;;;;;5093472;28;19911;-75
2023/10/24 02:26:17;;;;;;;;;;;;;;;;;;5094037;28;20485;-75
2023/10/24 02:28:43;;;;;;;;;;;;;;;;;;5093848;28;19950;-75
2023/10/24 02:31:10;;;;;;;;;;;;;;;;;;5093406;28;20245;-75
2023/10/24 02:33:36;;;;;;;;;;;;;;;;;;5093972;28;20014;-75
2023/10/24 02:36:02;;;;;;;;;;;;;;;;;;5093663;28;19963;-75
2023/10/24 02:38:28;;;;;;;;;;;;;;;;;;5093596;28;19904;-77
2023/10/24 02:40:55;;;;;;;;;;;;;;;;;;5093753;28;19904;-75
2023/10/24 02:43:21;;;;;;;;;;;;;;;;;;5075581;28;19904;-75
2023/10/24 02:45:47;;;;;;;;;;;;;;;;;;5093333;28;19959;-75
2023/10/24 02:48:13;;;;;;;;;;;;;;;;;;5093670;28;19908;-75
2023/10/24 02:50:39;;;;;;;;;;;;;;;;;;5093637;28;19904;-75
2023/10/24 02:53:07;;;;;;;;;;;;;;;;;;5093196;28;19910;-76
2023/10/24 02:55:33;;;;;;;;;;;;;;;;;;5093836;28;19947;-75
2023/10/24 02:57:59;;;;;;;;;;;;;;;;;;5093511;28;19912;-76
2023/10/24 03:00:25;;;;;;;;;;;;;;;;;;5093107;28;19904;-75
2023/10/24 03:02:51;;;;;;;;;;;;;;;;;;5094169;28;19904;-75
2023/10/24 03:05:17;;;;;;;;;;;;;;;;;;5079170;28;19915;-75
2023/10/24 03:07:42;;;;;;;;;;;;;;;;;;5096841;28;19904;-75
2023/10/24 03:10:08;;;;;;;;;;;;;;;;;;5079032;28;19904;-75
2023/10/24 03:12:34;;;;;;;;;;;;;;;;;;5097118;28;19957;-76
2023/10/24 03:15:00;;;;;;;;;;;;;;;;;;5096744;28;19903;-75
2023/10/24 03:17:26;;;;;;;;;;;;;;;;;;5096950;28;20413;-75
2023/10/24 03:19:52;;;;;;;;;;;;;;;;;;5097391;28;20357;-75
2023/10/24 03:22:18;;;;;;;;;;;;;;;;;;5097192;28;19908;-75
2023/10/24 03:24:44;;;;;;;;;;;;;;;;;;5097058;28;19946;-75
2023/10/24 03:27:13;;;;;;;;;;;;;;;;;;5096509;28;19911;-75
2023/10/24 03:29:42;;;;;;;;;;;;;;;;;;5097192;28;20261;-75
2023/10/24 03:32:08;;;;;;;;;;;;;;;;;;5096836;28;19951;-74
2023/10/24 03:34:35;;;;;;;;;;;;;;;;;;5096292;28;19947;-74
2023/10/24 03:37:01;;;;;;;;;;;;;;;;;;5096735;28;19912;-74
2023/10/24 03:39:27;;;;;;;;;;;;;;;;;;5096697;28;20314;-74
2023/10/24 03:41:53;;;;;;;;;;;;;;;;;;5096248;28;19904;-74
2023/10/24 03:44:19;;;;;;;;;;;;;;;;;;5096955;28;19911;-74
2023/10/24 03:46:45;;;;;;;;;;;;;;;;;;5096557;28;19908;-75
2023/10/24 03:49:11;;;;;;;;;;;;;;;;;;5078156;28;19996;-75
2023/10/24 03:51:37;;;;;;;;;;;;;;;;;;5096474;28;19927;-75
2023/10/24 03:54:04;;;;;;;;;;;;;;;;;;5096390;28;19904;-75
2023/10/24 03:56:30;;;;;;;;;;;;;;;;;;5095975;28;19915;-75
2023/10/24 03:58:55;;;;;;;;;;;;;;;;;;5096300;28;19904;-75
2023/10/24 04:01:21;;;;;;;;;;;;;;;;;;5078159;28;19910;-75
2023/10/24 04:03:47;;;;;;;;;;;;;;;;;;5095933;28;19904;-75
2023/10/24 04:06:13;;;;;;;;;;;;;;;;;;5077078;28;19904;-75
2023/10/24 04:08:39;;;;;;;;;;;;;;;;;;5094124;28;19904;-75
2023/10/24 04:11:05;;;;;;;;;;;;;;;;;;5093737;28;19904;-75
2023/10/24 04:13:31;;;;;;;;;;;;;;;;;;5093841;28;19904;-76
2023/10/24 04:15:57;;;;;;;;;;;;;;;;;;5093758;28;20275;-75
2023/10/24 04:18:23;;;;;;;;;;;;;;;;;;5093561;28;19964;-75
2023/10/24 04:20:49;;;;;;;;;;;;;;;;;;5093865;28;20386;-76
2023/10/24 04:23:15;;;;;;;;;;;;;;;;;;5093377;28;19926;-76
2023/10/24 04:25:41;;;;;;;;;;;;;;;;;;5093844;28;20356;-75
2023/10/24 04:28:07;;;;;;;;;;;;;;;;;;5095560;28;19904;-75
2023/10/24 04:30:33;;;;;;;;;;;;;;;;;;5095375;28;20464;-76
2023/10/24 04:32:59;;;;;;;;;;;;;;;;;;5095537;28;20348;-76
2023/10/24 04:35:25;;;;;;;;;;;;;;;;;;5093815;28;19908;-76
2023/10/24 04:37:51;;;;;;;;;;;;;;;;;;5093048;28;19916;-76
2023/10/24 04:40:17;;;;;;;;;;;;;;;;;;5092737;28;20011;-76
2023/10/24 04:42:43;;;;;;;;;;;;;;;;;;5094145;28;20356;-76
2023/10/24 04:45:09;;;;;;;;;;;;;;;;;;5093531;28;19904;-76
2023/10/24 04:47:35;;;;;;;;;;;;;;;;;;5094216;28;19910;-76
2023/10/24 04:50:01;;;;;;;;;;;;;;;;;;5095497;28;19904;-76
2023/10/24 04:52:27;;;;;;;;;;;;;;;;;;5095053;28;19904;-76
2023/10/24 04:54:53;;;;;;;;;;;;;;;;;;5094260;28;19943;-76
2023/10/24 04:57:19;;;;;;;;;;;;;;;;;;5094625;28;19912;-76
2023/10/24 04:59:45;;;;;;;;;;;;;;;;;;5095176;28;19918;-76
2023/10/24 05:02:11;;;;;;;;;;;;;;;;;;5095133;28;20378;-75
2023/10/24 05:04:37;;;;;;;;;;;;;;;;;;5075741;28;19907;-76
2023/10/24 05:07:03;;;;;;;;;;;;;;;;;;5093935;28;20003;-76
2023/10/24 05:09:29;;;;;;;;;;;;;;;;;;5095030;28;19911;-75
2023/10/24 05:11:55;;;;;;;;;;;;;;;;;;5076624;28;19903;-76
2023/10/24 05:14:21;;;;;;;;;;;;;;;;;;5094324;28;19957;-75
2023/10/24 05:16:47;;;;;;;;;;;;;;;;;;5094946;28;19968;-75
2023/10/24 05:19:13;;;;;;;;;;;;;;;;;;5093711;28;19908;-74
2023/10/24 05:21:39;;;;;;;;;;;;;;;;;;5093174;28;19904;-74
2023/10/24 05:24:05;;;;;;;;;;;;;;;;;;5093648;28;19908;-75
2023/10/24 05:26:34;;;;;;;;;;;;;;;;;;5093722;28;19911;-75
2023/10/24 05:29:00;;;;;;;;;;;;;;;;;;5094521;28;20360;-74
2023/10/24 05:31:26;;;;;;;;;;;;;;;;;;5078445;28;19947;-75
2023/10/24 05:33:52;;;;;;;;;;;;;;;;;;5079247;28;19935;-75
2023/10/24 05:36:18;;;;;;;;;;;;;;;;;;5071768;28;20006;-75
2023/10/24 05:38:44;;;;;;;;;;;;;;;;;;5072733;28;19912;-76
2023/10/24 05:41:11;;;;;;;;;;;;;;;;;;5065680;28;19915;-75
2023/10/24 05:43:39;;;;;;;;;;;;;;;;;;5073001;28;19990;-76
2023/10/24 05:46:05;;;;;;;;;;;;;;;;;;5058111;28;19994;-75
2023/10/24 05:48:31;;;;;;;;;;;;;;;;;;5061037;28;20415;-76
2023/10/24 05:50:57;;;;;;;;;;;;;;;;;;5089494;28;19947;-75
2023/10/24 05:53:23;;;;;;;;;;;;;;;;;;5070316;28;19904;-75
2023/10/24 05:55:49;;;;;;;;;;;;;;;;;;5092890;28;19904;-76
2023/10/24 05:58:15;;;;;;;;;;;;;;;;;;5083987;28;19908;-75
2023/10/24 06:00:41;;;;;;;;;;;;;;;;;;5071583;28;19911;-75
2023/10/24 06:03:07;;;;;;;;;;;;;;;;;;5085785;28;19916;-76
2023/10/24 06:05:33;;;;;;;;;;;;;;;;;;5085901;28;20411;-75
2023/10/24 06:07:59;;;;;;;;;;;;;;;;;;5091226;28;20355;-75
2023/10/24 06:10:26;;;;;;;;;;;;;;;;;;5091486;28;19915;-75
2023/10/24 06:12:52;;;;;;;;;;;;;;;;;;5086489;28;20430;-75
2023/10/24 06:15:18;;;;;;;;;;;;;;;;;;5088824;28;19908;-75
2023/10/24 06:17:44;;;;;;;;;;;;;;;;;;5090959;28;19967;-74
2023/10/24 06:20:10;;;;;;;;;;;;;;;;;;5089217;28;19912;-75
2023/10/24 06:22:36;;;;;;;;;;;;;;;;;;5073286;28;19908;-76
2023/10/24 06:25:02;;;;;;;;;;;;;;;;;;5089593;28;19947;-75
2023/10/24 06:27:28;;;;;;;;;;;;;;;;;;5087104;28;19908;-75
2023/10/24 06:29:54;;;;;;;;;;;;;;;;;;5068760;28;20275;-74
2023/10/24 06:32:20;;;;;;;;;;;;;;;;;;5091343;28;20383;-75
2023/10/24 06:34:46;;;;;;;;;;;;;;;;;;5091282;28;20354;-75
2023/10/24 06:37:12;;;;;;;;;;;;;;;;;;5072485;28;20391;-75
2023/10/24 06:39:38;;;;;;;;;;;;;;;;;;5055773;28;19905;-75
2023/10/24 06:42:04;;;;;;;;;;;;;;;;;;5056875;28;19995;-70
2023/10/24 06:44:30;;;;;;;;;;;;;;;;;;5075189;28;20482;-70
2023/10/24 06:46:56;;;;;;;;;;;;;;;;;;5094361;28;19951;-70
2023/10/24 06:49:22;;;;;;;;;;;;;;;;;;5074145;28;19911;-70
2023/10/24 06:51:50;;;;;;;;;;;;;;;;;;5095854;28;20370;-71
2023/10/24 06:54:16;;;;;;;;;;;;;;;;;;5094481;28;19904;-70
2023/10/24 06:56:42;;;;;;;;;;;;;;;;;;5093439;28;19919;-70
2023/10/24 06:59:08;;;;;;;;;;;;;;;;;;5091171;28;20094;-70
2023/10/24 07:01:33;;;;;;;;;;;;;;;;;;5092814;28;20268;-70
2023/10/24 07:03:59;;;;;;;;;;;;;;;;;;5075834;28;20284;-70
2023/10/24 07:06:25;;;;;;;;;;;;;;;;;;5092913;28;19915;-68
2023/10/24 07:08:52;;;;;;;;;;;;;;;;;;5075868;28;19903;-68
2023/10/24 07:11:18;;;;;;;;;;;;;;;;;;5074174;28;19907;-68
2023/10/24 07:14:33;;;;;;;;;;;;;;;;;;5131040;27;19926;-69
2023/10/24 07:16:59;;;;;;;;;;;;;;;;;;5128241;27;20018;-70
2023/10/24 07:19:25;;;;;;;;;;;;;;;;;;5147126;27;19914;-69
2023/10/24 07:21:51;;;;;;;;;;;;;;;;;;5125252;28;19915;-70
2023/10/24 07:24:17;;;;;;;;;;;;;;;;;;5107299;28;19943;-69
2023/10/24 07:27:03;;;;;;;;;;;;;;;;;;5096917;27;19926;-69
2023/10/24 07:29:29;;;;;;;;;;;;;;;;;;5070071;28;20003;-69
2023/10/24 07:31:56;;;;;;;;;;;;;;;;;;5088416;28;19908;-70
2023/10/24 07:36:21;;;;;;;;;;;;;;;;;;5067306;28;19912;-71
2023/10/24 07:38:48;;;;;;;;;;;;;;;;;;5068633;28;19947;-72
2023/10/24 07:41:14;;;;;;;;;;;;;;;;;;5067875;28;20550;-73
2023/10/24 07:43:40;;;;;;;;;;;;;;;;;;5067793;28;19952;-73
2023/10/24 07:46:06;;;;;;;;;;;;;;;;;;5066601;28;20323;-73
2023/10/24 07:48:32;;;;;;;;;;;;;;;;;;5068418;28;19909;-74
2023/10/24 07:50:58;;;;;;;;;;;;;;;;;;5067084;28;19912;-74
2023/10/24 07:53:24;;;;;;;;;;;;;;;;;;5069133;28;19909;-73
2023/10/24 07:55:50;;;;;;;;;;;;;;;;;;5066778;28;19917;-73
2023/10/24 07:59:43;;;;;;;;;;;;;;;;;;5089866;28;19922;-73
2023/10/24 08:02:09;;;;;;;;;;;;;;;;;;5086028;28;19920;-73
2023/10/24 08:07:23;;;;;;;;;;;;;;;;;;5088864;27;19912;-72
2023/10/24 08:09:50;;;;;;;;;;;;;;;;;;5085869;28;19919;-72
2023/10/24 08:12:16;;;;;;;;;;;;;;;;;;5088455;28;19908;-72
2023/10/24 08:14:42;;;;;;;;;;;;;;;;;;5083974;28;19995;-73
2023/10/24 08:17:07;;;;;;;;;;;;;;;;;;5067899;28;19958;-72
2023/10/24 08:19:33;;;;;;;;;;;;;;;;;;5068645;28;20360;-72
2023/10/24 08:22:00;;;;;;;;;;;;;;;;;;5078718;28;19912;-73
2023/10/24 08:24:26;;;;;;;;;;;;;;;;;;5072436;28;19919;-73
2023/10/24 08:28:20;;;;;;;;;;;;;;;;;;5110322;27;19938;-72
2023/10/24 08:30:46;;;;;;;;;;;;;;;;;;5109932;28;19916;-73
2023/10/24 08:33:12;;;;;;;;;;;;;;;;;;5109623;28;19912;-73
2023/10/24 08:35:38;;;;;;;;;;;;;;;;;;5108647;28;20257;-72
2023/10/24 08:38:05;;;;;;;;;;;;;;;;;;5108629;28;19908;-72
2023/10/24 08:40:31;;;;;;;;;;;;;;;;;;5110058;28;19908;-71
2023/10/24 08:43:01;;;;;;;;;;;;;;;;;;5108769;28;20366;-72
2023/10/24 08:45:27;;;;;;;;;;;;;;;;;;5109286;28;19938;-73
2023/10/24 08:47:52;;;;;;;;;;;;;;;;;;5098221;28;20272;-72
2023/10/24 08:50:18;;;;;;;;;;;;;;;;;;5107890;28;19950;-72
2023/10/24 08:52:44;;;;;;;;;;;;;;;;;;5092150;28;19908;-73
2023/10/24 08:57:26;;;;;;;;;;;;;;;;;;5105125;27;19939;-71
2023/10/24 08:59:52;;;;;;;;;;;;;;;;;;5084593;28;20388;-72
2023/10/24 09:02:18;;;;;;;;;;;;;;;;;;5066368;28;20007;-72
2023/10/24 09:04:45;;;;;;;;;;;;;;;;;;5082703;28;20665;-72
2023/10/24 09:07:11;;;;;;;;;;;;;;;;;;5064848;28;19938;-72
2023/10/24 09:09:37;;;;;;;;;;;;;;;;;;5083476;28;19919;-72
2023/10/24 09:12:05;;;;;;;;;;;;;;;;;;5067139;28;19991;-72
2023/10/24 09:14:31;;;;;;;;;;;;;;;;;;5086016;28;19909;-72
2023/10/24 09:16:56;;;;;;;;;;;;;;;;;;5076672;28;19990;-72
2023/10/24 09:19:22;;;;;;;;;;;;;;;;;;5081833;28;19912;-72
2023/10/24 09:21:48;;;;;;;;;;;;;;;;;;5077825;28;19963;-72
2023/10/24 09:24:14;;;;;;;;;;;;;;;;;;5072176;28;19951;-72
2023/10/24 09:26:41;;;;;;;;;;;;;;;;;;5081201;28;19912;-72
2023/10/24 09:29:07;;;;;;;;;;;;;;;;;;5075232;28;20010;-73
2023/10/24 09:31:33;;;;;;;;;;;;;;;;;;5067373;28;20528;-72
2023/10/24 09:33:59;;;;;;;;;;;;;;;;;;5060473;28;20307;-73
2023/10/24 09:36:25;;;;;;;;;;;;;;;;;;5078508;28;19921;-72
2023/10/24 09:38:51;;;;;;;;;;;;;;;;;;5064303;28;19920;-72
2023/10/24 09:41:17;;;;;;;;;;;;;;;;;;5080591;28;19909;-71
2023/10/24 09:43:43;;;;;;;;;;;;;;;;;;5086633;28;19958;-72
2023/10/24 09:46:08;;;;;;;;;;;;;;;;;;5082321;28;19912;-72
2023/10/24 09:48:34;;;;;;;;;;;;;;;;;;5085043;28;19908;-72
2023/10/24 09:51:00;;;;;;;;;;;;;;;;;;5083289;28;19915;-72
2023/10/24 09:53:26;;;;;;;;;;;;;;;;;;5083121;28;19916;-72
2023/10/24 09:55:52;;;;;;;;;;;;;;;;;;5083664;28;19924;-72
2023/10/24 09:58:18;;;;;;;;;;;;;;;;;;5083309;28;20074;-72
2023/10/24 10:00:45;;;;;;;;;;;;;;;;;;5068642;28;20064;-72
2023/10/24 10:03:11;;;;;;;;;;;;;;;;;;5068006;28;19973;-72
2023/10/24 10:05:37;;;;;;;;;;;;;;;;;;5080337;28;19916;-72
2023/10/24 10:08:03;;;;;;;;;;;;;;;;;;5059943;28;19916;-72
2023/10/24 10:10:28;;;;;;;;;;;;;;;;;;5051438;28;20003;-77
2023/10/24 10:12:54;;;;;;;;;;;;;;;;;;5064510;28;19981;-70
2023/10/24 10:15:21;;;;;;;;;;;;;;;;;;5070773;28;19925;-72
2023/10/24 10:17:47;;;;;;;;;;;;;;;;;;5069999;28;19936;-75
2023/10/24 10:20:13;;;;;;;;;;;;;;;;;;5068454;28;19908;-73
2023/10/24 10:22:38;;;;;;;;;;;;;;;;;;5069369;28;19913;-71
2023/10/24 10:25:04;;;;;;;;;;;;;;;;;;5064317;28;19909;-71
2023/10/24 10:27:30;;;;;;;;;;;;;;;;;;5054008;28;19917;-73
2023/10/24 10:29:56;;;;;;;;;;;;;;;;;;5060989;28;19920;-73
2023/10/24 10:32:22;;;;;;;;;;;;;;;;;;5066034;28;19921;-75
2023/10/24 10:34:48;;;;;;;;;;;;;;;;;;5064732;28;20376;-74
2023/10/24 10:37:15;;;;;;;;;;;;;;;;;;5050113;28;19908;-75
2023/10/24 10:39:41;;;;;;;;;;;;;;;;;;5069978;28;19920;-72
2023/10/24 10:42:08;;;;;;;;;;;;;;;;;;5065446;28;20029;-72
2023/10/24 10:44:33;;;;;;;;;;;;;;;;;;5046028;28;20087;-72
2023/10/24 10:46:59;;;;;;;;;;;;;;;;;;5085765;28;20292;-71
2023/10/24 10:49:25;;;;;;;;;;;;;;;;;;5073801;28;19948;-72
2023/10/24 10:51:51;;;;;;;;;;;;;;;;;;5074115;28;20312;-71
2023/10/24 10:54:17;;;;;;;;;;;;;;;;;;5074007;28;19908;-71
2023/10/24 10:56:43;;;;;;;;;;;;;;;;;;5055770;28;20040;-70
2023/10/24 10:59:09;;;;;;;;;;;;;;;;;;5072351;28;19908;-71
2023/10/24 11:01:35;;;;;;;;;;;;;;;;;;5056412;28;20384;-72
2023/10/24 11:04:01;;;;;;;;;;;;;;;;;;5074219;28;20105;-71
2023/10/24 11:06:27;;;;;;;;;;;;;;;;;;5070718;28;19915;-72
2023/10/24 11:08:53;;;;;;;;;;;;;;;;;;5075249;28;19947;-71
2023/10/24 11:11:19;;;;;;;;;;;;;;;;;;5072931;28;20376;-71
2023/10/24 11:13:47;;;;;;;;;;;;;;;;;;5051850;28;20432;-71
2023/10/24 11:16:13;;;;;;;;;;;;;;;;;;5053254;28;19959;-73
2023/10/24 11:18:40;;;;;;;;;;;;;;;;;;5070558;28;19909;-71
2023/10/24 11:21:07;;;;;;;;;;;;;;;;;;5071257;28;19908;-71
2023/10/24 11:23:33;;;;;;;;;;;;;;;;;;5069064;28;20286;-71
2023/10/24 11:25:59;;;;;;;;;;;;;;;;;;5060416;28;20349;-71
2023/10/24 11:28:26;;;;;;;;;;;;;;;;;;5066338;28;20027;-71
2023/10/24 11:30:52;;;;;;;;;;;;;;;;;;5069893;28;19913;-71
2023/10/24 11:33:18;;;;;;;;;;;;;;;;;;5071090;28;19916;-72
2023/10/24 11:35:45;;;;;;;;;;;;;;;;;;5069537;28;19923;-72
2023/10/24 11:38:11;;;;;;;;;;;;;;;;;;5072217;28;20258;-72
2023/10/24 11:40:37;;;;;;;;;;;;;;;;;;5073150;28;20416;-70
2023/10/24 11:43:03;;;;;;;;;;;;;;;;;;5073029;28;19996;-72
2023/10/24 11:45:29;;;;;;;;;;;;;;;;;;5055674;28;19912;-72
2023/10/24 11:47:55;;;;;;;;;;;;;;;;;;5070732;28;19908;-72
2023/10/24 11:50:21;;;;;;;;;;;;;;;;;;5073134;28;19909;-72
2023/10/24 11:52:47;;;;;;;;;;;;;;;;;;5073355;28;20336;-72
2023/10/24 11:55:13;;;;;;;;;;;;;;;;;;5072289;28;20334;-72
2023/10/24 11:57:39;;;;;;;;;;;;;;;;;;5073346;28;20398;-72
2023/10/24 12:00:05;;;;;;;;;;;;;;;;;;5071940;28;20132;-72
2023/10/24 12:02:31;;;;;;;;;;;;;;;;;;5072382;28;19989;-72
2023/10/24 12:04:57;;;;;;;;;;;;;;;;;;5073303;28;20427;-72
2023/10/24 12:07:23;;;;;;;;;;;;;;;;;;5072775;28;20056;-72
2023/10/24 12:09:49;;;;;;;;;;;;;;;;;;5073632;28;19909;-72
2023/10/24 12:12:15;;;;;;;;;;;;;;;;;;5069611;28;19909;-72
2023/10/24 12:14:41;;;;;;;;;;;;;;;;;;5071845;28;20366;-72
2023/10/24 12:17:07;;;;;;;;;;;;;;;;;;5073492;28;20042;-72
2023/10/24 12:19:33;;;;;;;;;;;;;;;;;;5073911;28;19962;-72
2023/10/24 12:21:59;;;;;;;;;;;;;;;;;;5073384;28;19912;-72
2023/10/24 12:24:25;;;;;;;;;;;;;;;;;;5055715;28;20039;-72
2023/10/24 12:26:51;;;;;;;;;;;;;;;;;;5073741;28;19908;-71
2023/10/24 12:29:17;;;;;;;;;;;;;;;;;;5072901;28;19916;-73
2023/10/24 12:31:43;;;;;;;;;;;;;;;;;;5072624;28;19908;-72
2023/10/24 12:34:09;;;;;;;;;;;;;;;;;;5073849;28;20002;-73
2023/10/24 12:36:36;;;;;;;;;;;;;;;;;;5071450;28;19917;-72
2023/10/24 12:39:01;;;;;;;;;;;;;;;;;;5071816;28;19912;-72
2023/10/24 12:41:27;;;;;;;;;;;;;;;;;;5071744;28;19909;-72
2023/10/24 12:43:53;;;;;;;;;;;;;;;;;;5071332;28;19908;-72
2023/10/24 12:46:19;;;;;;;;;;;;;;;;;;5053719;28;20467;-72
2023/10/24 12:48:45;;;;;;;;;;;;;;;;;;5071637;28;19954;-72
2023/10/24 12:51:12;;;;;;;;;;;;;;;;;;5072348;28;19920;-72
2023/10/24 12:53:38;;;;;;;;;;;;;;;;;;5072635;28;19909;-72
2023/10/24 12:56:06;;;;;;;;;;;;;;;;;;5071346;28;19944;-72
2023/10/24 12:58:33;;;;;;;;;;;;;;;;;;5071115;28;19946;-72
2023/10/24 13:00:59;;;;;;;;;;;;;;;;;;5053504;28;19935;-72
2023/10/24 13:03:25;;;;;;;;;;;;;;;;;;5053548;28;19948;-72
2023/10/24 13:05:51;;;;;;;;;;;;;;;;;;5053029;28;20399;-72
2023/10/24 13:08:18;;;;;;;;;;;;;;;;;;5071587;28;19991;-72
2023/10/24 13:10:44;;;;;;;;;;;;;;;;;;5071436;28;19908;-72
2023/10/24 13:13:10;;;;;;;;;;;;;;;;;;5071469;28;19909;-72
2023/10/24 13:15:36;;;;;;;;;;;;;;;;;;5071403;28;19939;-72
2023/10/24 13:18:02;;;;;;;;;;;;;;;;;;5071146;28;20342;-72
2023/10/24 13:20:28;;;;;;;;;;;;;;;;;;5071958;28;19909;-72
2023/10/24 13:22:54;;;;;;;;;;;;;;;;;;5071498;28;19913;-72
2023/10/24 13:25:20;;;;;;;;;;;;;;;;;;5054591;28;19909;-72
2023/10/24 13:27:46;;;;;;;;;;;;;;;;;;5073613;28;19908;-72
2023/10/24 13:30:12;;;;;;;;;;;;;;;;;;5073396;28;20296;-72
2023/10/24 13:32:38;;;;;;;;;;;;;;;;;;5055010;28;19909;-72
2023/10/24 13:35:04;;;;;;;;;;;;;;;;;;5073227;28;19916;-72
2023/10/24 13:37:30;;;;;;;;;;;;;;;;;;5073246;28;19912;-72
2023/10/24 13:39:56;;;;;;;;;;;;;;;;;;5072859;28;20014;-72
2023/10/24 13:42:22;;;;;;;;;;;;;;;;;;5074389;28;19974;-72
2023/10/24 13:44:49;;;;;;;;;;;;;;;;;;5076836;28;19955;-73
2023/10/24 13:47:15;;;;;;;;;;;;;;;;;;5076481;28;20276;-72
2023/10/24 13:49:41;;;;;;;;;;;;;;;;;;5076909;28;19908;-72
2023/10/24 13:52:07;;;;;;;;;;;;;;;;;;5076762;28;19915;-72
2023/10/24 13:54:33;;;;;;;;;;;;;;;;;;5076352;28;19948;-72
2023/10/24 13:56:59;;;;;;;;;;;;;;;;;;5076273;28;19925;-72
2023/10/24 13:59:25;;;;;;;;;;;;;;;;;;5076814;28;19915;-73
2023/10/24 14:01:51;;;;;;;;;;;;;;;;;;5058300;28;19970;-73
2023/10/24 14:04:16;;;;;;;;;;;;;;;;;;5058600;28;20373;-72
2023/10/24 14:06:42;;;;;;;;;;;;;;;;;;5076950;28;20408;-72
2023/10/24 14:09:08;;;;;;;;;;;;;;;;;;5076071;28;19909;-72
2023/10/24 14:11:34;;;;;;;;;;;;;;;;;;5076500;28;19908;-71
2023/10/24 14:14:00;;;;;;;;;;;;;;;;;;5076102;28;19915;-72
2023/10/24 14:16:26;;;;;;;;;;;;;;;;;;5076350;28;20490;-72
2023/10/24 14:18:52;;;;;;;;;;;;;;;;;;5076328;28;19930;-72
2023/10/24 14:21:18;;;;;;;;;;;;;;;;;;5073310;28;19909;-72
2023/10/24 14:23:44;;;;;;;;;;;;;;;;;;5075924;28;19909;-72
2023/10/24 14:26:10;;;;;;;;;;;;;;;;;;5076300;28;20327;-72
2023/10/24 14:28:38;;;;;;;;;;;;;;;;;;5075872;28;20008;-72
2023/10/24 14:31:04;;;;;;;;;;;;;;;;;;5076210;28;19916;-71
2023/10/24 14:33:30;;;;;;;;;;;;;;;;;;5058256;28;19908;-71
2023/10/24 14:35:56;;;;;;;;;;;;;;;;;;5075574;28;20387;-72
2023/10/24 14:38:22;;;;;;;;;;;;;;;;;;5076076;28;19966;-72
2023/10/24 14:40:48;;;;;;;;;;;;;;;;;;5075959;28;20315;-72
2023/10/24 14:43:14;;;;;;;;;;;;;;;;;;5075610;28;19932;-72
2023/10/24 14:45:40;;;;;;;;;;;;;;;;;;5075868;28;19908;-71
2023/10/24 14:48:06;;;;;;;;;;;;;;;;;;5075856;28;19916;-71
2023/10/24 14:50:33;;;;;;;;;;;;;;;;;;5057486;28;19912;-71
2023/10/24 14:52:58;;;;;;;;;;;;;;;;;;5075648;28;20003;-71
2023/10/24 14:55:24;;;;;;;;;;;;;;;;;;5022065;28;20007;-71
2023/10/24 14:57:50;;;;;;;;;;;;;;;;;;5075299;28;19912;-72
2023/10/24 15:00:16;;;;;;;;;;;;;;;;;;5075620;28;19909;-72
2023/10/24 15:02:43;;;;;;;;;;;;;;;;;;5075925;28;19913;-71
2023/10/24 15:05:09;;;;;;;;;;;;;;;;;;5075236;28;19908;-74
2023/10/24 15:07:35;;;;;;;;;;;;;;;;;;5075478;28;19909;-73
2023/10/24 15:10:03;;;;;;;;;;;;;;;;;;5075636;28;19909;-73
2023/10/24 15:12:29;;;;;;;;;;;;;;;;;;5057051;28;20284;-72
2023/10/24 15:14:55;;;;;;;;;;;;;;;;;;5075342;28;19916;-72
2023/10/24 15:17:21;;;;;;;;;;;;;;;;;;5074969;28;20336;-72
2023/10/24 15:19:47;;;;;;;;;;;;;;;;;;5075213;28;19909;-72
2023/10/24 15:22:13;;;;;;;;;;;;;;;;;;5057306;28;19931;-73
2023/10/24 15:24:39;;;;;;;;;;;;;;;;;;5074759;28;20398;-73
2023/10/24 15:27:05;;;;;;;;;;;;;;;;;;5057304;28;19935;-72
2023/10/24 15:29:36;;;;;;;;;;;;;;;;;;5075062;28;19965;-72
2023/10/24 15:32:02;;;;;;;;;;;;;;;;;;5074698;28;20356;-72
2023/10/24 15:34:28;;;;;;;;;;;;;;;;;;5057167;28;19914;-73
2023/10/24 15:36:54;;;;;;;;;;;;;;;;;;5075048;28;19970;-73
2023/10/24 15:39:20;;;;;;;;;;;;;;;;;;5074479;28;19913;-72
2023/10/24 15:41:46;;;;;;;;;;;;;;;;;;5056964;28;19991;-72
2023/10/24 15:44:12;;;;;;;;;;;;;;;;;;5056929;28;19918;-72
2023/10/24 15:46:41;;;;;;;;;;;;;;;;;;5074501;28;19908;-71
2023/10/24 15:49:07;;;;;;;;;;;;;;;;;;5056871;28;19958;-71
2023/10/24 15:51:33;;;;;;;;;;;;;;;;;;5074665;28;19908;-72
2023/10/24 15:53:59;;;;;;;;;;;;;;;;;;5074267;28;19999;-72
2023/10/24 15:56:25;;;;;;;;;;;;;;;;;;5074342;28;19928;-72
2023/10/24 15:58:51;;;;;;;;;;;;;;;;;;5074566;28;19916;-72
2023/10/24 16:01:17;;;;;;;;;;;;;;;;;;5056131;28;19908;-72
2023/10/24 16:03:43;;;;;;;;;;;;;;;;;;5074197;28;19915;-71
2023/10/24 16:06:09;;;;;;;;;;;;;;;;;;5074362;28;20361;-71
2023/10/24 16:08:35;;;;;;;;;;;;;;;;;;5073872;28;19909;-71
2023/10/24 16:11:01;;;;;;;;;;;;;;;;;;5074236;28;20380;-72
2023/10/24 16:13:27;;;;;;;;;;;;;;;;;;5074214;28;20424;-72
2023/10/24 16:15:53;;;;;;;;;;;;;;;;;;5073598;28;20365;-71
2023/10/24 16:18:19;;;;;;;;;;;;;;;;;;5074135;28;20357;-71
2023/10/24 16:20:45;;;;;;;;;;;;;;;;;;5073700;28;19954;-72
2023/10/24 16:23:11;;;;;;;;;;;;;;;;;;5074028;28;19913;-72
2023/10/24 16:25:37;;;;;;;;;;;;;;;;;;5073969;28;20423;-72
2023/10/24 16:28:03;;;;;;;;;;;;;;;;;;5073935;28;19908;-72
2023/10/24 16:30:29;;;;;;;;;;;;;;;;;;5073937;28;19916;-72
2023/10/24 16:32:55;;;;;;;;;;;;;;;;;;5074035;28;19915;-72
2023/10/24 16:35:21;;;;;;;;;;;;;;;;;;5073461;28;20369;-72
2023/10/24 16:37:47;;;;;;;;;;;;;;;;;;5074388;28;19915;-72
2023/10/24 16:40:13;;;;;;;;;;;;;;;;;;5055820;28;20375;-71
2023/10/24 16:42:39;;;;;;;;;;;;;;;;;;5073438;28;19909;-72
2023/10/24 16:45:05;;;;;;;;;;;;;;;;;;5055625;28;19908;-71
2023/10/24 16:47:31;;;;;;;;;;;;;;;;;;5073573;28;20011;-71